Time;durP1;ratioP1;P1;durP2;ratioP2;P2;SDS_P1;SDS_P2;PMS_P1;PMS_P2;Temp;Humidity;BMP_temperature;BMP_pressure;BME280_temperature;BME280_humidity;BME280_pressure;Samples;Min_cycle;Max_cycle;Signal;HPM_P1;HPM_P2
2023/03/12 00:00:38;;;;;;;5.20;4.70;;;0.30;99.90;;;;;;5034739;28;20204;-73
2023/03/12 00:03:03;;;;;;;6.37;5.03;;;0.30;99.90;;;;;;5033722;28;20747;-72
2023/03/12 00:05:29;;;;;;;5.23;4.57;;;0.30;99.90;;;;;;5037584;28;20180;-73
2023/03/12 00:07:58;;;;;;;5.17;4.80;;;0.30;99.90;;;;;;5032087;28;20196;-73
2023/03/12 00:10:24;;;;;;;5.50;4.80;;;0.30;99.90;;;;;;5032389;28;20200;-73
2023/03/12 00:12:50;;;;;;;5.53;4.50;;;0.30;99.90;;;;;;5031655;28;20186;-73
2023/03/12 00:15:16;;;;;;;5.23;4.73;;;0.30;99.90;;;;;;5033023;28;20539;-72
2023/03/12 00:17:41;;;;;;;5.40;4.90;;;0.30;99.90;;;;;;5036837;28;20188;-75
2023/03/12 00:20:08;;;;;;;5.60;4.53;;;0.40;99.90;;;;;;5025863;28;20207;-73
2023/03/12 00:22:33;;;;;;;5.20;4.70;;;0.30;99.90;;;;;;5030676;28;20183;-73
2023/03/12 00:24:59;;;;;;;5.83;4.70;;;0.40;99.90;;;;;;5041429;28;20179;-73
2023/03/12 00:27:26;;;;;;;7.33;4.63;;;0.40;99.90;;;;;;5031423;28;20187;-73
2023/03/12 00:29:51;;;;;;;6.57;4.70;;;0.40;99.90;;;;;;5029679;28;20209;-73
2023/03/12 00:32:17;;;;;;;6.17;4.70;;;0.40;99.90;;;;;;5026654;28;20191;-73
2023/03/12 00:34:43;;;;;;;5.00;4.50;;;0.40;99.90;;;;;;5026237;28;20207;-73
2023/03/12 00:37:08;;;;;;;6.03;4.70;;;0.40;99.90;;;;;;5034532;28;20270;-73
2023/03/12 00:39:35;;;;;;;6.87;5.30;;;0.30;99.90;;;;;;5024369;28;20711;-73
2023/03/12 00:42:00;;;;;;;4.60;4.27;;;0.40;99.90;;;;;;5023813;28;20648;-73
2023/03/12 00:44:26;;;;;;;4.90;4.50;;;0.40;99.90;;;;;;5026901;28;20188;-75
2023/03/12 00:46:52;;;;;;;5.00;4.50;;;0.40;99.90;;;;;;5032129;28;20184;-75
2023/03/12 00:49:18;;;;;;;4.90;4.40;;;0.40;99.90;;;;;;5026987;28;20269;-73
2023/03/12 00:51:44;;;;;;;6.20;4.83;;;0.40;99.90;;;;;;5029333;28;20263;-75
2023/03/12 00:54:10;;;;;;;4.80;4.40;;;0.40;99.90;;;;;;5024668;28;20173;-75
2023/03/12 00:56:35;;;;;;;4.60;4.20;;;0.30;99.90;;;;;;5031729;28;20852;-72
2023/03/12 00:59:01;;;;;;;4.00;3.60;;;0.30;99.90;;;;;;5027907;28;20188;-73
2023/03/12 01:01:27;;;;;;;5.33;3.80;;;0.30;99.90;;;;;;5030697;28;20187;-73
2023/03/12 01:03:54;;;;;;;4.97;4.50;;;0.20;99.90;;;;;;5036596;28;20190;-73
2023/03/12 01:06:19;;;;;;;3.77;3.47;;;0.10;99.90;;;;;;5037803;28;20180;-73
2023/03/12 01:08:45;;;;;;;5.37;4.00;;;-0.10;99.90;;;;;;5027908;28;20262;-73
2023/03/12 01:11:15;;;;;;;4.73;4.07;;;-0.10;99.90;;;;;;5037428;28;20200;-73
2023/03/12 01:13:41;;;;;;;4.77;3.90;;;-0.20;99.90;;;;;;5033230;28;20186;-72
2023/03/12 01:16:07;;;;;;;4.63;4.17;;;-0.30;99.90;;;;;;5021669;28;20272;-73
2023/03/12 01:18:33;;;;;;;4.37;3.93;;;-0.40;99.90;;;;;;5039434;28;20196;-73
2023/03/12 01:20:59;;;;;;;4.70;4.23;;;-0.40;99.90;;;;;;5039862;28;20200;-75
2023/03/12 01:23:25;;;;;;;4.47;4.07;;;-0.50;99.90;;;;;;5030544;28;20203;-73
2023/03/12 01:25:54;;;;;;;4.73;4.33;;;-0.50;99.90;;;;;;5038719;28;20216;-72
2023/03/12 01:28:23;;;;;;;4.20;3.90;;;-0.60;99.90;;;;;;5029887;28;20744;-78
2023/03/12 01:30:48;;;;;;;4.23;3.93;;;-0.60;99.90;;;;;;5031166;28;20199;-73
2023/03/12 01:33:14;;;;;;;4.90;4.40;;;-0.70;99.90;;;;;;5038822;28;20180;-73
2023/03/12 01:35:40;;;;;;;5.30;4.80;;;-0.80;99.90;;;;;;5040104;28;20176;-73
2023/03/12 01:38:07;;;;;;;6.77;4.20;;;-0.80;99.90;;;;;;5032876;28;20216;-73
2023/03/12 01:40:34;;;;;;;5.27;4.60;;;-0.90;99.90;;;;;;5036900;28;20200;-73
2023/03/12 01:43:23;;;;;;;4.77;4.37;;;-0.90;99.90;;;;;;5032916;28;20189;-73
2023/03/12 01:46:27;;;;;;;5.20;4.80;;;-1.00;99.90;;;;;;5028651;28;20600;-73
2023/03/12 01:48:57;;;;;;;6.40;4.73;;;-1.00;99.90;;;;;;5036025;28;20223;-73
2023/03/12 01:51:26;;;;;;;5.20;4.70;;;-1.00;99.90;;;;;;5030764;28;20177;-74
2023/03/12 01:53:55;;;;;;;6.37;5.50;;;-1.10;99.90;;;;;;5033848;28;20185;-76
2023/03/12 01:56:24;;;;;;;10.90;8.07;;;-1.20;99.90;;;;;;5034618;28;20182;-73
2023/03/12 01:58:52;;;;;;;8.23;7.43;;;-1.20;99.90;;;;;;5039713;28;20185;-72
2023/03/12 02:01:20;;;;;;;7.90;6.80;;;-1.30;99.90;;;;;;5026551;28;20283;-73
2023/03/12 02:03:50;;;;;;;7.43;6.67;;;-1.40;99.90;;;;;;5031978;28;20188;-73
2023/03/12 02:06:19;;;;;;;8.50;6.97;;;-1.50;99.90;;;;;;5027997;28;20180;-75
2023/03/12 02:08:46;;;;;;;8.77;7.10;;;-1.50;99.90;;;;;;5027616;28;20188;-75
2023/03/12 02:11:13;;;;;;;9.63;6.27;;;-1.50;99.90;;;;;;5032265;28;20223;-72
2023/03/12 02:13:38;;;;;;;6.93;6.23;;;-1.50;99.90;;;;;;5029143;28;20232;-76
2023/03/12 02:16:05;;;;;;;7.87;7.07;;;-1.50;99.90;;;;;;5034605;28;20539;-73
2023/03/12 02:18:33;;;;;;;7.27;6.50;;;-1.40;99.90;;;;;;5028131;28;20598;-73
2023/03/12 02:21:17;;;;;;;7.77;6.87;;;-1.50;99.90;;;;;;5034212;28;20203;-75
2023/03/12 02:24:01;;;;;;;9.03;6.67;;;-1.50;99.90;;;;;;5028248;28;20220;-77
2023/03/12 02:26:28;;;;;;;8.27;6.83;;;-1.50;99.90;;;;;;5027697;28;20307;-76
2023/03/12 02:28:55;;;;;;;9.67;7.20;;;-1.60;99.90;;;;;;5030284;28;20212;-75
2023/03/12 02:31:26;;;;;;;7.83;7.03;;;-1.60;99.90;;;;;;5033744;28;20256;-75
2023/03/12 02:33:52;;;;;;;8.53;6.47;;;-1.60;99.90;;;;;;5030599;28;20769;-75
2023/03/12 02:36:19;;;;;;;7.17;6.47;;;-1.60;99.90;;;;;;5036052;28;20258;-72
2023/03/12 02:38:47;;;;;;;6.27;5.63;;;-1.50;99.90;;;;;;5043157;28;20190;-75
2023/03/12 02:41:25;;;;;;;8.27;7.13;;;-1.50;99.90;;;;;;5036135;28;20199;-72
2023/03/12 02:44:08;;;;;;;6.93;6.23;;;-1.60;99.90;;;;;;5031264;28;20185;-73
2023/03/12 02:46:39;;;;;;;12.10;7.40;;;-1.80;99.90;;;;;;5035719;28;20177;-73
2023/03/12 02:49:05;;;;;;;8.87;6.77;;;-1.80;99.90;;;;;;5040539;28;20188;-73
2023/03/12 02:51:30;;;;;;;8.17;7.30;;;-1.80;99.90;;;;;;5026511;28;20568;-72
2023/03/12 02:53:56;;;;;;;7.90;7.10;;;-1.80;99.90;;;;;;5028131;28;20260;-73
2023/03/12 02:56:23;;;;;;;7.23;6.53;;;-1.80;99.90;;;;;;5032713;28;20176;-75
2023/03/12 02:58:49;;;;;;;9.00;6.87;;;-1.80;99.90;;;;;;5034196;28;20572;-73
2023/03/12 03:01:15;;;;;;;6.63;5.83;;;-1.80;99.90;;;;;;5030679;28;20238;-73
2023/03/12 03:03:41;;;;;;;6.93;6.10;;;-1.80;99.90;;;;;;5028114;28;20181;-72
2023/03/12 03:06:06;;;;;;;7.03;6.23;;;-1.90;99.90;;;;;;5023419;28;20177;-75
2023/03/12 03:08:32;;;;;;;7.90;6.37;;;-1.90;99.90;;;;;;5024855;28;20317;-72
2023/03/12 03:10:59;;;;;;;6.43;5.83;;;-1.90;99.90;;;;;;5032606;28;20393;-72
2023/03/12 03:13:25;;;;;;;6.57;5.93;;;-1.90;99.90;;;;;;5030930;28;20209;-73
2023/03/12 03:15:50;;;;;;;7.57;6.37;;;-1.90;99.90;;;;;;5028982;28;20639;-75
2023/03/12 03:18:16;;;;;;;6.37;5.73;;;-1.90;99.90;;;;;;5032923;28;20180;-75
2023/03/12 03:20:43;;;;;;;8.03;7.23;;;-2.00;99.90;;;;;;5031414;28;20229;-75
2023/03/12 03:23:09;;;;;;;6.93;6.30;;;-2.00;99.90;;;;;;5034516;28;20268;-75
2023/03/12 03:25:35;;;;;;;7.37;6.63;;;-2.00;99.90;;;;;;5033318;28;20709;-73
2023/03/12 03:28:00;;;;;;;10.67;6.40;;;-2.00;99.90;;;;;;5027954;28;20259;-72
2023/03/12 03:30:26;;;;;;;5.63;5.13;;;-1.90;99.90;;;;;;5035096;28;20604;-73
2023/03/12 03:32:52;;;;;;;6.03;5.43;;;-1.90;99.90;;;;;;5027932;28;20205;-73
2023/03/12 03:35:17;;;;;;;5.80;5.13;;;-1.90;99.90;;;;;;5035738;28;20180;-73
2023/03/12 03:37:43;;;;;;;5.93;5.30;;;-1.80;99.90;;;;;;5027068;28;20233;-72
2023/03/12 03:40:11;;;;;;;5.90;5.23;;;-1.80;99.90;;;;;;5024582;28;20258;-72
2023/03/12 03:42:38;;;;;;;6.03;5.13;;;-1.80;99.90;;;;;;5028850;28;20172;-73
2023/03/12 03:45:05;;;;;;;8.40;5.90;;;-1.70;99.90;;;;;;5033649;28;20176;-73
2023/03/12 03:47:30;;;;;;;8.70;6.13;;;-1.70;99.90;;;;;;5023976;28;20231;-72
2023/03/12 03:49:56;;;;;;;6.00;5.50;;;-1.70;99.90;;;;;;5034611;28;20208;-73
2023/03/12 03:52:22;;;;;;;9.00;6.07;;;-1.60;99.90;;;;;;5030015;28;20177;-73
2023/03/12 03:54:47;;;;;;;6.03;5.43;;;-1.60;99.90;;;;;;5029848;28;20195;-73
2023/03/12 03:57:13;;;;;;;5.50;5.00;;;-1.60;99.90;;;;;;5033479;28;20196;-72
2023/03/12 03:59:38;;;;;;;5.70;5.10;;;-1.50;99.90;;;;;;5035727;28;20204;-73
2023/03/12 04:02:04;;;;;;;5.03;4.50;;;-1.40;99.90;;;;;;5034936;28;20274;-75
2023/03/12 04:04:30;;;;;;;5.73;5.20;;;-1.30;99.90;;;;;;5032047;28;20176;-73
2023/03/12 04:06:55;;;;;;;6.33;5.73;;;-1.20;99.90;;;;;;5021855;28;20276;-72
2023/03/12 04:09:21;;;;;;;6.47;4.67;;;-1.20;99.90;;;;;;5032189;28;20583;-73
2023/03/12 04:11:47;;;;;;;4.87;4.33;;;-1.20;99.90;;;;;;5028749;28;20259;-73
2023/03/12 04:14:12;;;;;;;5.50;4.93;;;-1.10;99.90;;;;;;5037655;28;20183;-76
2023/03/12 04:16:38;;;;;;;6.03;5.30;;;-1.10;99.90;;;;;;5024542;28;20217;-72
2023/03/12 04:19:03;;;;;;;7.17;5.20;;;-1.00;99.90;;;;;;5037235;28;20195;-73
2023/03/12 04:21:29;;;;;;;5.80;4.90;;;-0.90;99.90;;;;;;5038056;28;20181;-75
2023/03/12 04:23:55;;;;;;;5.27;4.60;;;-0.90;99.90;;;;;;5037919;28;20183;-76
2023/03/12 04:26:20;;;;;;;5.57;4.80;;;-0.90;99.90;;;;;;5026150;28;20255;-75
2023/03/12 04:28:46;;;;;;;5.67;4.67;;;-0.80;99.90;;;;;;5029076;28;20199;-73
2023/03/12 04:31:11;;;;;;;5.60;4.93;;;-0.80;99.90;;;;;;5038462;28;20194;-73
2023/03/12 04:33:39;;;;;;;5.03;4.47;;;-0.70;99.90;;;;;;5032055;28;20168;-74
2023/03/12 04:36:06;;;;;;;5.10;4.70;;;-0.80;99.90;;;;;;5029694;28;20534;-73
2023/03/12 04:38:32;;;;;;;6.53;5.13;;;-0.80;99.90;;;;;;5029356;28;20173;-74
2023/03/12 04:41:04;;;;;;;4.97;4.47;;;-0.80;99.90;;;;;;5032288;28;20197;-72
2023/03/12 04:43:31;;;;;;;4.70;4.30;;;-0.80;99.90;;;;;;5025523;28;20173;-73
2023/03/12 04:45:57;;;;;;;6.17;4.07;;;-0.70;99.90;;;;;;5025579;28;20263;-74
2023/03/12 04:48:23;;;;;;;4.70;4.20;;;-0.70;99.90;;;;;;5029900;28;20229;-73
2023/03/12 04:50:49;;;;;;;4.90;4.50;;;-0.70;99.90;;;;;;5032302;28;20706;-72
2023/03/12 04:53:14;;;;;;;5.27;4.67;;;-0.70;99.90;;;;;;5033600;28;20204;-73
2023/03/12 04:55:40;;;;;;;5.73;4.83;;;-0.80;99.90;;;;;;5029381;28;20180;-73
2023/03/12 04:58:06;;;;;;;5.53;5.03;;;-0.80;99.90;;;;;;5036321;28;20528;-73
2023/03/12 05:00:32;;;;;;;8.13;4.93;;;-0.80;99.90;;;;;;5028168;28;20207;-75
2023/03/12 05:02:57;;;;;;;6.40;4.60;;;-0.80;99.90;;;;;;5027687;28;20191;-72
2023/03/12 05:05:23;;;;;;;5.23;4.77;;;-0.90;99.90;;;;;;5033022;28;20655;-72
2023/03/12 05:07:49;;;;;;;5.70;5.20;;;-0.80;99.90;;;;;;5029509;28;20188;-73
2023/03/12 05:10:14;;;;;;;6.13;5.53;;;-0.80;99.90;;;;;;5030751;28;20671;-73
2023/03/12 05:12:40;;;;;;;5.50;5.00;;;-0.80;99.90;;;;;;5034908;28;20707;-73
2023/03/12 05:15:06;;;;;;;6.50;5.07;;;-0.80;99.90;;;;;;5028775;28;20183;-73
2023/03/12 05:17:31;;;;;;;7.97;5.77;;;-0.80;99.90;;;;;;5027462;28;20184;-72
2023/03/12 05:19:57;;;;;;;8.40;5.77;;;-0.80;99.90;;;;;;5028775;28;20235;-73
2023/03/12 05:22:22;;;;;;;6.07;5.43;;;-0.80;99.90;;;;;;5035094;28;20195;-74
2023/03/12 05:24:48;;;;;;;7.43;5.40;;;-0.90;99.90;;;;;;5030467;28;20285;-72
2023/03/12 05:27:14;;;;;;;5.13;4.70;;;-0.90;99.90;;;;;;5025572;28;20188;-73
2023/03/12 05:29:39;;;;;;;6.97;4.33;;;-0.90;99.90;;;;;;5026466;28;20766;-73
2023/03/12 05:32:06;;;;;;;5.00;4.33;;;-0.90;99.90;;;;;;5029174;28;20199;-75
2023/03/12 05:34:32;;;;;;;4.77;4.37;;;-1.00;99.90;;;;;;5026391;28;20188;-73
2023/03/12 05:36:58;;;;;;;5.50;4.57;;;-0.90;99.90;;;;;;5030398;28;20181;-73
2023/03/12 05:39:25;;;;;;;4.93;4.17;;;-0.90;99.90;;;;;;5024405;28;20310;-75
2023/03/12 05:41:52;;;;;;;5.00;4.03;;;-0.90;99.90;;;;;;5027566;28;20541;-72
2023/03/12 05:44:18;;;;;;;4.50;4.10;;;-0.80;99.90;;;;;;5027144;28;20219;-73
2023/03/12 05:46:44;;;;;;;4.73;4.23;;;-0.70;99.90;;;;;;5031046;28;20208;-73
2023/03/12 05:49:10;;;;;;;4.80;4.30;;;-0.70;99.90;;;;;;5027429;28;20659;-74
2023/03/12 05:51:35;;;;;;;4.57;3.97;;;-0.70;99.90;;;;;;5025373;28;20186;-76
2023/03/12 05:54:02;;;;;;;5.00;4.07;;;-0.60;99.90;;;;;;5028400;28;20190;-72
2023/03/12 05:56:28;;;;;;;5.00;3.93;;;-0.60;99.90;;;;;;5034143;28;20307;-76
2023/03/12 05:58:53;;;;;;;3.60;3.33;;;-0.60;99.90;;;;;;5034537;28;20284;-72
2023/03/12 06:01:22;;;;;;;4.30;3.90;;;-0.60;99.90;;;;;;5030921;28;20188;-73
2023/03/12 06:03:48;;;;;;;4.13;3.73;;;-0.60;99.90;;;;;;5030151;28;20188;-75
2023/03/12 06:06:14;;;;;;;4.50;4.10;;;-0.60;99.90;;;;;;5031449;28;20246;-72
2023/03/12 06:08:41;;;;;;;4.30;3.87;;;-0.60;99.90;;;;;;5026009;28;20204;-73
2023/03/12 06:11:07;;;;;;;5.03;3.57;;;-0.60;99.90;;;;;;5031789;28;20204;-73
2023/03/12 06:13:33;;;;;;;4.60;3.97;;;-0.60;99.90;;;;;;5036733;28;20185;-75
2023/03/12 06:16:06;;;;;;;4.00;3.70;;;-0.50;99.90;;;;;;5032186;28;20264;-75
2023/03/12 06:18:33;;;;;;;4.03;3.67;;;-0.40;99.90;;;;;;5033418;28;20207;-72
2023/03/12 06:21:20;;;;;;;3.83;3.53;;;-0.30;99.90;;;;;;5024974;28;20235;-73
2023/03/12 06:23:46;;;;;;;3.93;3.60;;;-0.20;99.90;;;;;;5028678;28;20196;-73
2023/03/12 06:26:12;;;;;;;5.30;3.83;;;0.00;99.90;;;;;;5024945;28;20266;-73
2023/03/12 06:28:38;;;;;;;5.03;4.23;;;0.10;99.90;;;;;;5020517;28;20676;-73
2023/03/12 06:31:04;;;;;;;4.10;3.53;;;0.20;99.90;;;;;;5032688;28;20208;-73
2023/03/12 06:33:30;;;;;;;4.10;3.63;;;0.30;99.90;;;;;;5035531;28;20216;-73
2023/03/12 06:35:58;;;;;;;4.60;4.03;;;0.40;99.90;;;;;;5036810;28;20201;-73
2023/03/12 06:38:24;;;;;;;4.27;3.87;;;0.40;99.90;;;;;;5031398;28;20184;-72
2023/03/12 06:40:58;;;;;;;5.07;3.87;;;0.60;99.90;;;;;;5030803;28;20213;-73
2023/03/12 06:43:24;;;;;;;4.17;3.83;;;0.80;99.90;;;;;;5023612;28;20600;-73
2023/03/12 06:45:50;;;;;;;3.97;3.63;;;0.90;99.90;;;;;;5035620;28;20253;-73
2023/03/12 06:48:16;;;;;;;4.57;3.65;;;1.10;99.90;;;;;;5034117;28;21029;-72
2023/03/12 06:50:42;;;;;;;5.10;3.80;;;1.40;99.90;;;;;;5041098;28;20207;-74
2023/03/12 06:53:08;;;;;;;3.83;3.53;;;1.50;99.90;;;;;;5044830;28;20635;-73
2023/03/12 06:55:33;;;;;;;4.53;4.23;;;1.70;99.90;;;;;;5036625;28;20181;-77
2023/03/12 06:57:59;;;;;;;4.23;3.83;;;1.70;99.90;;;;;;5033565;28;20547;-73
2023/03/12 07:00:24;;;;;;;4.40;3.80;;;1.70;99.90;;;;;;5028714;28;20274;-72
2023/03/12 07:02:50;;;;;;;4.90;4.40;;;1.60;99.90;;;;;;5024162;28;20180;-73
2023/03/12 07:05:16;;;;;;;5.07;4.33;;;1.60;99.90;;;;;;5030397;28;20185;-73
2023/03/12 07:07:41;;;;;;;4.83;4.37;;;1.70;99.90;;;;;;5023992;28;20201;-74
2023/03/12 07:10:09;;;;;;;5.13;3.87;;;1.90;99.90;;;;;;5032629;28;20299;-72
2023/03/12 07:12:35;;;;;;;4.25;3.95;;;2.20;99.90;;;;;;5031616;28;20641;-73
2023/03/12 07:15:00;;;;;;;4.00;3.67;;;2.60;99.90;;;;;;5033344;28;20197;-74
2023/03/12 07:17:26;;;;;;;5.55;3.95;;;2.70;99.90;;;;;;5038520;28;20180;-75
2023/03/12 07:19:52;;;;;;;5.05;3.88;;;2.70;99.90;;;;;;5034583;28;20615;-73
2023/03/12 07:22:17;;;;;;;4.15;3.63;;;2.80;99.90;;;;;;5035002;28;20681;-73
2023/03/12 07:24:43;;;;;;;3.97;3.67;;;3.00;99.90;;;;;;5021963;28;20282;-73
2023/03/12 07:27:08;;;;;;;4.97;4.07;;;3.20;99.90;;;;;;5034985;28;20782;-72
2023/03/12 07:29:34;;;;;;;3.95;3.65;;;3.40;99.90;;;;;;5032309;28;20601;-73
2023/03/12 07:32:01;;;;;;;4.43;3.95;;;3.60;99.90;;;;;;5029423;28;20218;-74
2023/03/12 07:34:26;;;;;;;4.03;3.72;;;3.70;99.90;;;;;;5033446;28;20215;-72
2023/03/12 07:36:53;;;;;;;3.90;3.65;;;3.90;99.90;;;;;;5034118;28;20172;-75
2023/03/12 07:39:19;;;;;;;4.93;4.53;;;4.20;99.90;;;;;;5032399;28;20201;-75
2023/03/12 07:41:44;;;;;;;4.53;4.13;;;4.50;99.90;;;;;;5029051;28;20641;-80
2023/03/12 07:44:10;;;;;;;5.65;4.30;;;4.70;99.90;;;;;;5034688;28;20215;-74
2023/03/12 07:46:36;;;;;;;4.80;4.40;;;4.90;99.90;;;;;;5037561;28;20180;-75
2023/03/12 07:49:01;;;;;;;4.07;3.80;;;5.00;99.90;;;;;;5027680;28;21023;-77
2023/03/12 07:51:27;;;;;;;5.97;4.38;;;5.00;99.90;;;;;;5030204;28;20176;-75
2023/03/12 07:53:53;;;;;;;4.32;4.03;;;5.00;99.90;;;;;;5028950;28;20169;-75
2023/03/12 07:56:18;;;;;;;4.85;4.30;;;5.30;99.90;;;;;;5023779;28;20208;-75
2023/03/12 07:58:44;;;;;;;4.07;3.78;;;5.40;99.90;;;;;;5022195;28;20615;-75
2023/03/12 08:01:09;;;;;;;4.55;4.15;;;5.30;99.90;;;;;;5033342;28;20197;-75
2023/03/12 08:03:35;;;;;;;4.30;3.97;;;5.50;99.90;;;;;;5030075;28;20564;-75
2023/03/12 08:06:02;;;;;;;5.00;4.60;;;5.60;99.90;;;;;;5038715;28;20208;-75
2023/03/12 08:08:30;;;;;;;4.97;3.92;;;5.50;99.90;;;;;;5035199;28;20750;-75
2023/03/12 08:10:56;;;;;;;5.22;4.82;;;5.90;99.90;;;;;;5039058;28;20208;-75
2023/03/12 08:13:23;;;;;;;4.35;4.05;;;5.90;99.90;;;;;;5036835;28;20226;-75
2023/03/12 08:15:52;;;;;;;5.20;4.43;;;6.10;99.90;;;;;;5024255;28;20267;-75
2023/03/12 08:18:18;;;;;;;4.72;4.18;;;6.00;99.90;;;;;;5026647;28;20192;-76
2023/03/12 08:20:44;;;;;;;4.03;3.63;;;5.60;99.90;;;;;;5030941;28;20570;-75
2023/03/12 08:23:10;;;;;;;4.95;4.40;;;5.40;99.90;;;;;;5037477;28;20180;-75
2023/03/12 08:25:36;;;;;;;4.80;4.32;;;5.70;99.90;;;;;;5034205;28;20192;-75
2023/03/12 08:28:02;;;;;;;6.78;4.22;;;5.90;99.90;;;;;;5037143;28;20529;-75
2023/03/12 08:30:30;;;;;;;4.43;4.13;;;6.10;99.90;;;;;;5026960;28;20222;-75
2023/03/12 08:32:55;;;;;;;4.82;4.43;;;6.10;99.90;;;;;;5033202;28;20180;-76
2023/03/12 08:35:21;;;;;;;6.03;4.72;;;6.50;99.90;;;;;;5023383;28;20549;-75
2023/03/12 08:37:46;;;;;;;4.68;4.32;;;6.40;99.90;;;;;;5032401;28;20191;-74
2023/03/12 08:40:13;;;;;;;5.05;4.65;;;6.30;99.90;;;;;;5029571;28;20214;-75
2023/03/12 08:42:43;;;;;;;4.80;4.03;;;6.60;99.90;;;;;;5025035;28;20177;-75
2023/03/12 08:45:10;;;;;;;4.90;4.43;;;6.70;99.90;;;;;;5028046;28;20188;-77
2023/03/12 08:47:38;;;;;;;4.65;4.18;;;6.90;99.90;;;;;;5034090;28;20555;-75
2023/03/12 08:50:05;;;;;;;4.70;4.28;;;7.50;99.90;;;;;;5025495;28;20785;-76
2023/03/12 08:52:30;;;;;;;4.60;4.10;;;8.00;99.90;;;;;;5043675;28;20245;-75
2023/03/12 08:54:56;;;;;;;5.00;4.60;;;8.40;99.90;;;;;;5034187;28;20655;-76
2023/03/12 08:57:21;;;;;;;4.82;4.40;;;8.60;99.90;;;;;;5026289;28;20587;-78
2023/03/12 08:59:47;;;;;;;4.32;4.03;;;8.30;99.90;;;;;;5028212;28;20207;-75
2023/03/12 09:02:13;;;;;;;5.10;4.63;;;8.20;99.90;;;;;;5030962;28;20175;-75
2023/03/12 09:04:38;;;;;;;4.32;4.00;;;8.30;99.90;;;;;;5033226;28;20180;-76
2023/03/12 09:07:04;;;;;;;4.10;3.80;;;8.90;99.70;;;;;;5026244;28;20215;-76
2023/03/12 09:09:31;;;;;;;3.65;3.45;;;9.50;98.40;;;;;;5028138;28;20216;-77
2023/03/12 09:11:56;;;;;;;4.43;4.03;;;10.00;96.10;;;;;;5033683;28;20188;-75
2023/03/12 09:14:22;;;;;;;3.65;3.42;;;10.30;94.90;;;;;;5035005;28;20576;-76
2023/03/12 09:16:48;;;;;;;4.28;3.88;;;10.30;93.70;;;;;;5025840;28;20184;-75
2023/03/12 09:19:14;;;;;;;4.00;3.70;;;10.50;93.80;;;;;;5021469;28;20215;-77
2023/03/12 09:21:40;;;;;;;3.83;3.53;;;11.00;92.10;;;;;;5028802;28;20188;-75
2023/03/12 09:24:06;;;;;;;3.40;3.10;;;10.90;91.00;;;;;;5031382;28;20243;-75
2023/03/12 09:26:32;;;;;;;3.97;3.67;;;10.90;91.40;;;;;;5030287;28;20181;-75
2023/03/12 09:28:58;;;;;;;3.55;3.33;;;10.90;90.60;;;;;;5032662;28;20249;-75
2023/03/12 09:31:24;;;;;;;3.80;3.50;;;10.80;91.40;;;;;;5031928;28;20169;-75
2023/03/12 09:33:51;;;;;;;3.67;3.40;;;10.60;91.80;;;;;;5039044;28;20189;-75
2023/03/12 09:36:16;;;;;;;4.15;3.75;;;10.60;90.50;;;;;;5036319;28;20553;-75
2023/03/12 09:38:42;;;;;;;4.00;3.70;;;10.30;91.70;;;;;;5038654;28;20190;-75
2023/03/12 09:41:18;;;;;;;3.97;3.03;;;10.70;91.00;;;;;;5035661;28;20200;-75
2023/03/12 09:43:51;;;;;;;3.28;3.08;;;11.20;90.80;;;;;;5036767;28;20242;-76
2023/03/12 09:46:28;;;;;;;3.95;3.60;;;12.00;89.90;;;;;;5030924;28;20177;-75
2023/03/12 09:48:57;;;;;;;4.32;3.38;;;12.40;85.40;;;;;;5036701;28;20612;-75
2023/03/12 09:51:46;;;;;;;3.28;2.90;;;12.90;84.30;;;;;;5028450;28;20190;-75
2023/03/12 09:54:31;;;;;;;2.63;2.47;;;13.10;80.90;;;;;;5035949;28;20169;-75
2023/03/12 09:57:02;;;;;;;3.35;2.72;;;13.00;80.10;;;;;;5032992;28;20180;-75
2023/03/12 09:59:27;;;;;;;2.60;2.50;;;13.10;79.30;;;;;;5032830;28;20205;-75
2023/03/12 10:02:01;;;;;;;2.42;1.92;;;13.70;76.60;;;;;;5032527;28;20235;-75
2023/03/12 10:04:49;;;;;;;2.40;2.20;;;13.80;73.70;;;;;;5029910;28;20191;-75
2023/03/12 10:07:23;;;;;;;3.15;2.65;;;13.10;76.30;;;;;;5027283;28;20181;-75
2023/03/12 10:10:19;;;;;;;2.88;2.28;;;12.80;76.80;;;;;;5027665;28;20204;-75
2023/03/12 10:13:20;;;;;;;2.58;2.38;;;12.10;81.10;;;;;;5035776;28;20226;-75
2023/03/12 10:16:00;;;;;;;2.63;2.40;;;11.80;81.70;;;;;;4985746;28;20193;-75
2023/03/12 10:18:54;;;;;;;4.28;2.88;;;11.40;83.60;;;;;;5019011;28;20231;-77
2023/03/12 10:21:37;;;;;;;4.85;2.60;;;11.10;85.70;;;;;;5031553;28;20183;-75
2023/03/12 10:24:42;;;;;;;2.63;2.50;;;10.40;87.30;;;;;;5034411;28;20183;-75
2023/03/12 10:27:13;;;;;;;3.78;3.17;;;9.70;90.60;;;;;;5038286;28;20188;-75
2023/03/12 10:29:42;;;;;;;3.08;2.45;;;9.50;91.90;;;;;;5034515;28;20204;-76
2023/03/12 10:32:15;;;;;;;5.95;3.50;;;9.70;92.40;;;;;;5030104;28;20588;-75
2023/03/12 10:34:59;;;;;;;4.28;3.33;;;9.90;92.60;;;;;;5037364;28;20673;-78
2023/03/12 10:37:38;;;;;;;3.47;3.22;;;10.20;92.30;;;;;;5024466;28;20541;-77
2023/03/12 10:40:04;;;;;;;3.47;3.13;;;10.90;91.10;;;;;;5037594;28;20872;-76
2023/03/12 10:42:32;;;;;;;4.05;3.65;;;11.10;91.30;;;;;;5026710;28;20263;-75
2023/03/12 10:44:58;;;;;;;3.25;2.45;;;11.20;90.90;;;;;;5032355;28;20659;-75
2023/03/12 10:47:24;;;;;;;3.30;3.03;;;11.10;91.10;;;;;;5040552;28;20283;-75
2023/03/12 10:49:50;;;;;;;3.63;2.90;;;10.90;91.90;;;;;;5041507;28;20635;-77
2023/03/12 10:52:20;;;;;;;2.75;2.33;;;11.10;91.50;;;;;;5034356;28;20194;-76
2023/03/12 10:54:49;;;;;;;3.00;2.80;;;11.00;91.10;;;;;;5029087;28;20259;-75
2023/03/12 10:57:15;;;;;;;3.40;3.10;;;10.80;91.30;;;;;;5034843;28;20655;-75
2023/03/12 10:59:44;;;;;;;3.45;3.00;;;10.30;91.80;;;;;;5029366;28;20216;-75
2023/03/12 11:02:42;;;;;;;3.00;2.58;;;10.10;92.00;;;;;;5029735;28;20203;-75
2023/03/12 11:05:24;;;;;;;2.10;2.00;;;9.90;93.20;;;;;;5041448;28;20234;-75
2023/03/12 11:07:50;;;;;;;3.10;2.90;;;9.60;93.60;;;;;;5030884;28;20264;-74
2023/03/12 11:10:15;;;;;;;3.67;3.28;;;9.50;93.80;;;;;;5024302;28;20755;-75
2023/03/12 11:12:53;;;;;;;4.38;3.67;;;9.50;94.30;;;;;;5032265;28;20173;-75
2023/03/12 11:15:24;;;;;;;3.67;3.10;;;9.30;94.70;;;;;;5029156;28;20169;-75
2023/03/12 11:17:51;;;;;;;3.33;3.13;;;9.20;95.00;;;;;;5034937;28;20729;-75
2023/03/12 11:20:24;;;;;;;3.72;3.42;;;8.90;95.70;;;;;;5029400;28;20775;-77
2023/03/12 11:22:49;;;;;;;3.55;2.97;;;8.80;96.90;;;;;;5034011;28;20212;-75
2023/03/12 11:25:28;;;;;;;5.30;4.80;;;8.40;99.90;;;;;;5035625;28;20672;-75
2023/03/12 11:28:00;;;;;;;4.22;3.92;;;8.30;99.90;;;;;;5033318;28;20181;-76
2023/03/12 11:30:35;;;;;;;5.18;4.30;;;8.10;99.90;;;;;;5027069;28;20276;-75
2023/03/12 11:33:02;;;;;;;5.38;4.88;;;8.00;99.90;;;;;;5033017;28;20666;-75
2023/03/12 11:35:46;;;;;;;4.32;3.92;;;8.40;99.90;;;;;;5038790;28;20230;-75
2023/03/12 11:38:30;;;;;;;4.65;4.25;;;9.10;99.90;;;;;;5029262;28;20179;-75
2023/03/12 11:41:26;;;;;;;5.38;4.43;;;9.50;99.90;;;;;;5030022;28;20209;-75
2023/03/12 11:43:59;;;;;;;5.38;4.45;;;9.70;99.90;;;;;;5028465;28;20172;-76
2023/03/12 11:46:42;;;;;;;5.28;4.60;;;9.60;99.90;;;;;;5036272;28;20184;-75
2023/03/12 11:49:11;;;;;;;4.43;4.03;;;9.50;99.90;;;;;;5035755;28;20258;-75
2023/03/12 11:51:58;;;;;;;5.57;5.03;;;9.40;99.90;;;;;;5040448;28;20204;-75
2023/03/12 11:54:45;;;;;;;6.63;4.00;;;9.10;99.90;;;;;;5030448;28;20181;-76
2023/03/12 11:57:16;;;;;;;5.40;4.55;;;8.80;99.90;;;;;;5036909;28;20176;-75
2023/03/12 11:59:48;;;;;;;4.72;4.30;;;8.40;99.90;;;;;;5031998;28;20199;-76
2023/03/12 12:02:43;;;;;;;5.28;4.13;;;8.20;99.90;;;;;;5030748;28;20260;-75
2023/03/12 12:05:21;;;;;;;7.47;4.90;;;8.10;99.90;;;;;;5033870;28;20187;-76
2023/03/12 12:08:27;;;;;;;5.50;5.00;;;7.80;99.90;;;;;;5031981;28;20176;-75
2023/03/12 12:11:05;;;;;;;5.65;4.43;;;7.80;99.90;;;;;;5001647;28;20281;-75
2023/03/12 12:13:54;;;;;;;4.63;4.20;;;7.70;99.90;;;;;;5027516;28;20233;-75
2023/03/12 12:16:38;;;;;;;5.28;4.88;;;7.70;99.90;;;;;;5023754;28;20928;-75
2023/03/12 12:19:32;;;;;;;7.10;5.38;;;7.70;99.90;;;;;;5029469;28;20227;-77
2023/03/12 12:22:18;;;;;;;5.35;4.85;;;8.20;99.90;;;;;;5032110;28;20227;-76
2023/03/12 12:24:56;;;;;;;4.88;4.47;;;8.30;99.90;;;;;;5034456;28;20188;-75
2023/03/12 12:27:30;;;;;;;5.38;4.88;;;8.50;99.90;;;;;;5027323;28;20231;-75
2023/03/12 12:30:13;;;;;;;6.30;5.65;;;8.50;99.90;;;;;;5034787;28;20215;-76
2023/03/12 12:33:26;;;;;;;5.40;4.68;;;8.40;99.90;;;;;;5033838;28;20181;-75
2023/03/12 12:35:52;;;;;;;4.55;4.15;;;8.50;99.90;;;;;;5034742;28;20185;-75
2023/03/12 12:38:35;;;;;;;5.53;5.03;;;8.30;99.90;;;;;;5025072;28;20201;-76
2023/03/12 12:41:22;;;;;;;5.68;4.85;;;8.00;99.90;;;;;;5027665;28;20284;-75
2023/03/12 12:44:12;;;;;;;5.85;4.97;;;7.60;99.90;;;;;;5029940;28;20667;-75
2023/03/12 12:47:00;;;;;;;6.97;5.47;;;7.40;99.90;;;;;;5022956;28;20263;-75
2023/03/12 12:49:56;;;;;;;6.03;5.10;;;7.40;99.90;;;;;;5030441;28;20355;-75
2023/03/12 12:52:21;;;;;;;5.97;5.30;;;7.40;99.90;;;;;;5027473;28;20196;-75
2023/03/12 12:54:57;;;;;;;5.55;5.03;;;7.50;99.90;;;;;;5026862;28;20188;-75
2023/03/12 12:57:40;;;;;;;5.68;5.07;;;7.50;99.90;;;;;;5020874;28;20177;-75
2023/03/12 13:00:30;;;;;;;6.20;5.70;;;7.30;99.90;;;;;;5034237;28;20203;-75
2023/03/12 13:02:56;;;;;;;5.65;5.07;;;7.30;99.90;;;;;;5028975;28;20860;-75